createdAt,value
2022-08-21T00:04:06.690Z,17.43
2022-08-21T00:09:09.588Z,17.45
2022-08-21T00:14:12.218Z,17.29
2022-08-21T00:19:13.976Z,17.33
2022-08-21T00:24:15.625Z,17.28
2022-08-21T00:29:17.304Z,17.21
2022-08-21T00:34:19.065Z,17.23
2022-08-21T00:39:20.903Z,17.30
2022-08-21T00:44:22.600Z,17.37
2022-08-21T00:49:24.324Z,17.34
2022-08-21T00:54:28.319Z,17.35
2022-08-21T00:59:35.946Z,17.25
2022-08-21T01:04:38.219Z,17.26
2022-08-21T01:09:41.522Z,17.22
2022-08-21T01:14:43.842Z,17.27
2022-08-21T01:19:45.594Z,17.22
2022-08-21T01:24:47.312Z,17.32
2022-08-21T01:29:57.939Z,17.05
2022-08-21T01:34:59.624Z,16.89
2022-08-21T01:40:01.714Z,17.03
2022-08-21T01:45:05.752Z,17.02
2022-08-21T01:50:11.587Z,16.99
2022-08-21T01:55:15.205Z,16.82
2022-08-21T02:00:20.065Z,16.90
2022-08-21T02:05:21.757Z,16.85
2022-08-21T02:10:27.527Z,16.95
2022-08-21T02:15:31.213Z,16.88
2022-08-21T02:20:39.639Z,16.82
2022-08-21T02:25:42.264Z,16.79
2022-08-21T02:30:46.796Z,16.74
2022-08-21T02:35:49.756Z,16.74
2022-08-21T02:40:52.685Z,16.78
2022-08-21T02:45:56.328Z,16.68
2022-08-21T02:51:03.404Z,16.71
2022-08-21T02:56:08.263Z,16.68
2022-08-21T03:01:10.559Z,16.49
2022-08-21T03:06:15.974Z,16.54
2022-08-21T03:11:18.478Z,16.48
2022-08-21T03:16:21.466Z,16.50
2022-08-21T03:21:23.477Z,16.40
2022-08-21T03:26:27.833Z,16.30
2022-08-21T03:31:31.929Z,16.22
2022-08-21T03:36:33.551Z,16.23
2022-08-21T03:41:35.216Z,16.18
2022-08-21T03:46:36.961Z,16.10
2022-08-21T03:51:38.698Z,16.10
2022-08-21T03:56:40.411Z,15.96
2022-08-21T04:01:52.690Z,15.91
2022-08-21T04:06:54.883Z,15.99
2022-08-21T04:11:57.207Z,15.96
2022-08-21T04:16:58.827Z,15.88
2022-08-21T04:22:00.650Z,15.73
2022-08-21T04:27:02.473Z,15.82
2022-08-21T04:32:04.259Z,15.84
2022-08-21T04:37:05.979Z,15.87
2022-08-21T04:42:07.767Z,15.93
2022-08-21T04:47:09.472Z,15.85
2022-08-21T04:52:13.887Z,15.87
2022-08-21T04:57:16.991Z,15.82
2022-08-21T05:02:19.680Z,15.87
2022-08-21T05:07:42.469Z,15.76
2022-08-21T05:12:45.961Z,15.80
2022-08-21T05:17:57.148Z,15.84
2022-08-21T05:23:09.513Z,15.84
2022-08-21T05:28:11.719Z,15.78
2022-08-21T05:33:13.407Z,15.91
2022-08-21T05:38:18.360Z,16.05
2022-08-21T05:43:20.676Z,16.08
2022-08-21T05:48:24.910Z,15.98
2022-08-21T05:53:26.617Z,16.11
2022-08-21T05:58:28.380Z,16.22
2022-08-21T06:03:34.962Z,16.30
2022-08-21T06:08:37.143Z,16.35
2022-08-21T06:13:39.945Z,16.33
2022-08-21T06:18:42.092Z,16.50
2022-08-21T06:23:44.502Z,16.62
2022-08-21T06:28:46.171Z,16.70
2022-08-21T06:33:48.271Z,16.73
2022-08-21T06:38:51.598Z,16.74
2022-08-21T06:43:55.465Z,16.88
2022-08-21T06:48:58.494Z,16.95
2022-08-21T06:54:00.167Z,17.08
2022-08-21T06:59:01.857Z,17.14
2022-08-21T07:04:03.829Z,17.33
2022-08-21T07:09:05.530Z,17.41
2022-08-21T07:14:07.207Z,17.55
2022-08-21T07:19:08.960Z,17.59
2022-08-21T07:24:11.331Z,17.64
2022-08-21T07:29:14.053Z,17.77
2022-08-21T07:34:17.229Z,17.99
2022-08-21T07:39:22.222Z,18.27
2022-08-21T07:44:23.983Z,18.34
2022-08-21T07:49:25.656Z,18.39
2022-08-21T07:54:33.946Z,18.58
2022-08-21T07:59:36.282Z,18.77
2022-08-21T08:04:37.986Z,18.65
2022-08-21T08:09:52.276Z,18.51
2022-08-21T08:14:53.994Z,18.55
2022-08-21T08:19:56.367Z,18.58
2022-08-21T08:24:58.074Z,18.74
2022-08-21T08:29:59.848Z,18.80
2022-08-21T08:35:02.968Z,19.17
2022-08-21T08:40:07.017Z,19.39
2022-08-21T08:45:20.918Z,19.51
2022-08-21T08:50:29.009Z,20.02
2022-08-21T08:55:36.887Z,19.78
2022-08-21T09:00:39.312Z,19.65
2022-08-21T09:05:54.651Z,19.63
2022-08-21T09:10:59.206Z,19.63
2022-08-21T09:16:10.188Z,19.48
2022-08-21T09:21:37.343Z,19.62
2022-08-21T09:26:57.941Z,19.90
2022-08-21T09:31:59.549Z,20.17
2022-08-21T09:37:01.474Z,20.75
2022-08-21T09:42:07.384Z,20.42
2022-08-21T09:47:10.762Z,20.35
2022-08-21T09:52:30.585Z,20.34
2022-08-21T09:57:46.843Z,20.95
2022-08-21T10:02:52.569Z,21.11
2022-08-21T10:07:54.247Z,21.26
2022-08-21T10:12:59.126Z,21.29
2022-08-21T10:18:22.994Z,21.43
2022-08-21T10:23:52.605Z,21.52
2022-08-21T10:29:02.812Z,21.81
2022-08-21T10:34:18.681Z,21.92
2022-08-21T10:39:36.533Z,22.38
2022-08-21T10:44:55.036Z,22.25
2022-08-21T10:50:14.926Z,22.66
2022-08-21T10:55:21.010Z,23.10
2022-08-21T11:00:28.962Z,22.88
2022-08-21T11:05:39.715Z,22.40
2022-08-21T11:10:58.102Z,22.59
2022-08-21T11:16:10.477Z,22.75
2022-08-21T11:21:39.883Z,22.94
2022-08-21T11:27:02.347Z,22.96
2022-08-21T11:32:16.222Z,22.67
2022-08-21T11:37:38.192Z,22.70
2022-08-21T11:42:56.326Z,22.84
2022-08-21T11:48:41.326Z,22.67
2022-08-21T11:54:26.673Z,22.76
2022-08-21T11:59:40.819Z,22.53
2022-08-21T12:04:47.709Z,22.66
2022-08-21T12:09:56.167Z,22.63
2022-08-21T12:15:22.942Z,22.79
2022-08-21T12:20:30.499Z,22.68
2022-08-21T12:25:42.087Z,22.56
2022-08-21T12:30:46.284Z,22.37
2022-08-21T12:35:52.435Z,22.56
2022-08-21T12:41:01.898Z,22.85
2022-08-21T12:46:05.469Z,22.90
2022-08-21T12:51:13.119Z,22.87
2022-08-21T12:56:18.676Z,22.52
2022-08-21T13:01:41.435Z,22.86
2022-08-21T13:06:47.353Z,22.95
2022-08-21T13:11:50.163Z,22.79
2022-08-21T13:16:59.007Z,22.82
2022-08-21T13:22:01.703Z,22.75
2022-08-21T13:27:19.798Z,23.25
2022-08-21T13:32:26.867Z,22.88
2022-08-21T13:37:30.084Z,22.87
2022-08-21T13:42:32.464Z,22.84
2022-08-21T13:47:34.212Z,23.07
2022-08-21T13:52:57.102Z,23.05
2022-08-21T13:58:04.022Z,22.81
2022-08-21T14:03:12.327Z,23.16
2022-08-21T14:08:38.706Z,23.13
2022-08-21T14:13:46.865Z,22.98
2022-08-21T14:19:03.563Z,23.04
2022-08-21T14:24:13.318Z,22.95
2022-08-21T14:29:18.495Z,22.95
2022-08-21T14:34:22.510Z,23.00
2022-08-21T14:39:24.327Z,22.95
2022-08-21T14:44:26.292Z,23.09
2022-08-21T14:49:29.455Z,23.11
2022-08-21T14:54:33.135Z,23.19
2022-08-21T14:59:36.515Z,23.57
2022-08-21T15:04:38.328Z,23.45
2022-08-21T15:09:39.980Z,23.36
2022-08-21T15:14:42.070Z,23.62
2022-08-21T15:19:43.768Z,23.74
2022-08-21T15:24:45.505Z,23.73
2022-08-21T15:29:47.349Z,23.55
2022-08-21T15:34:49.003Z,23.65
2022-08-21T15:39:54.225Z,23.57
2022-08-21T15:44:57.175Z,23.60
2022-08-21T15:50:23.544Z,23.73
2022-08-21T15:55:26.570Z,23.65
2022-08-21T16:00:29.280Z,23.71
2022-08-21T16:05:32.870Z,23.75
2022-08-21T16:10:36.191Z,23.75
2022-08-21T16:15:37.949Z,23.32
2022-08-21T16:20:40.134Z,23.38
2022-08-21T16:25:44.405Z,23.42
2022-08-21T16:30:49.483Z,23.16
2022-08-21T16:35:51.819Z,22.99
2022-08-21T16:40:53.992Z,22.80
2022-08-21T16:45:57.480Z,22.73
2022-08-21T16:50:59.267Z,22.62
2022-08-21T16:56:01.642Z,22.55
2022-08-21T17:01:07.027Z,22.51
2022-08-21T17:06:11.275Z,22.43
2022-08-21T17:11:37.323Z,22.42
2022-08-21T17:16:44.517Z,22.29
2022-08-21T17:21:46.751Z,22.19
2022-08-21T17:26:49.224Z,22.17
2022-08-21T17:31:51.399Z,22.08
2022-08-21T17:36:57.998Z,21.91
2022-08-21T17:42:04.251Z,21.94
2022-08-21T17:47:08.605Z,21.91
2022-08-21T17:52:10.573Z,21.96
2022-08-21T17:57:22.807Z,21.90
2022-08-21T18:02:24.963Z,21.76
2022-08-21T18:07:31.969Z,21.67
2022-08-21T18:12:37.517Z,21.56
2022-08-21T18:17:42.384Z,21.45
2022-08-21T18:22:44.395Z,21.46
2022-08-21T18:27:48.253Z,21.38
2022-08-21T18:32:52.474Z,21.24
2022-08-21T18:37:55.570Z,21.22
2022-08-21T18:42:57.385Z,21.20
2022-08-21T18:48:01.987Z,21.10
2022-08-21T18:53:20.834Z,21.12
2022-08-21T19:04:48.871Z,21.05
2022-08-21T19:16:34.248Z,20.92
2022-08-21T19:21:38.325Z,20.88
2022-08-21T19:26:41.133Z,20.82
2022-08-21T19:31:44.976Z,20.80
2022-08-21T19:43:30.366Z,20.70
2022-08-21T19:48:33.616Z,20.64
2022-08-21T19:53:39.059Z,20.61
2022-08-21T19:58:43.244Z,20.55
2022-08-21T20:09:09.617Z,20.45
2022-08-21T20:14:15.018Z,20.40
2022-08-21T20:19:17.486Z,20.37
2022-08-21T20:24:20.598Z,20.36
2022-08-21T20:29:35.112Z,20.33
2022-08-21T20:34:41.806Z,20.32
2022-08-21T20:39:46.891Z,20.28
2022-08-21T20:44:49.237Z,20.27
2022-08-21T21:00:49.685Z,20.07
2022-08-21T21:06:01.817Z,19.99
2022-08-21T21:11:11.147Z,19.95
2022-08-21T21:16:23.875Z,19.96
2022-08-21T21:21:35.332Z,19.92
2022-08-21T21:32:06.592Z,19.87
2022-08-21T21:37:14.090Z,19.86
2022-08-21T21:42:59.369Z,19.78
2022-08-21T21:48:42.942Z,19.83
2022-08-21T21:53:54.992Z,19.82
2022-08-21T21:59:33.169Z,19.79
2022-08-21T22:04:51.211Z,19.69
2022-08-21T22:10:05.666Z,19.72
2022-08-21T22:15:07.884Z,19.71
2022-08-21T22:20:36.062Z,19.75
2022-08-21T22:25:42.986Z,19.71
2022-08-21T22:30:51.925Z,19.67
2022-08-21T22:35:58.821Z,19.64
2022-08-21T22:41:17.399Z,19.63
2022-08-21T22:46:45.002Z,19.64
2022-08-21T22:51:48.772Z,19.65
2022-08-21T22:57:05.123Z,19.58
2022-08-21T23:02:22.128Z,19.55
2022-08-21T23:07:50.824Z,19.52
2022-08-21T23:12:59.551Z,19.53
2022-08-21T23:18:25.600Z,19.51
2022-08-21T23:23:30.665Z,19.49
2022-08-21T23:28:50.836Z,19.50
2022-08-21T23:34:10.379Z,19.48
2022-08-21T23:39:39.268Z,19.47
2022-08-21T23:44:41.103Z,19.48
2022-08-21T23:50:05.667Z,19.47
2022-08-21T23:55:30.603Z,19.45
